sensor_id;sensor_type;location;lat;lon;timestamp;P1;durP1;ratioP1;P2;durP2;ratioP2
23146;SDS011;11742;53.532;-1.478;2022-09-09T00:02:15;5.10;;;3.33;;
23146;SDS011;11742;53.532;-1.478;2022-09-09T00:04:54;6.43;;;3.60;;
23146;SDS011;11742;53.532;-1.478;2022-09-09T00:13:13;5.93;;;3.42;;
23146;SDS011;11742;53.532;-1.478;2022-09-09T00:15:59;6.95;;;4.45;;
23146;SDS011;11742;53.532;-1.478;2022-09-09T00:21:31;5.90;;;4.00;;
23146;SDS011;11742;53.532;-1.478;2022-09-09T00:24:00;9.65;;;4.47;;
23146;SDS011;11742;53.532;-1.478;2022-09-09T00:29:10;7.40;;;4.47;;
23146;SDS011;11742;53.532;-1.478;2022-09-09T00:31:49;6.72;;;4.63;;
23146;SDS011;11742;53.532;-1.478;2022-09-09T00:34:21;9.73;;;4.72;;
23146;SDS011;11742;53.532;-1.478;2022-09-09T00:36:49;9.60;;;5.05;;
23146;SDS011;11742;53.532;-1.478;2022-09-09T00:42:18;7.95;;;5.10;;
23146;SDS011;11742;53.532;-1.478;2022-09-09T00:47:34;7.38;;;4.80;;
23146;SDS011;11742;53.532;-1.478;2022-09-09T00:50:22;8.25;;;5.25;;
23146;SDS011;11742;53.532;-1.478;2022-09-09T00:52:55;6.43;;;4.35;;
23146;SDS011;11742;53.532;-1.478;2022-09-09T00:58:18;6.30;;;4.40;;
23146;SDS011;11742;53.532;-1.478;2022-09-09T01:00:45;6.15;;;4.80;;
23146;SDS011;11742;53.532;-1.478;2022-09-09T01:05:51;7.78;;;4.80;;
23146;SDS011;11742;53.532;-1.478;2022-09-09T01:11:27;6.25;;;4.70;;
23146;SDS011;11742;53.532;-1.478;2022-09-09T01:16:41;7.50;;;4.75;;
23146;SDS011;11742;53.532;-1.478;2022-09-09T01:19:08;6.88;;;5.05;;
23146;SDS011;11742;53.532;-1.478;2022-09-09T01:24:38;8.43;;;5.32;;
23146;SDS011;11742;53.532;-1.478;2022-09-09T01:27:07;6.38;;;4.38;;
23146;SDS011;11742;53.532;-1.478;2022-09-09T01:29:34;7.03;;;4.90;;
23146;SDS011;11742;53.532;-1.478;2022-09-09T01:35:07;6.28;;;4.30;;
23146;SDS011;11742;53.532;-1.478;2022-09-09T01:37:56;5.30;;;4.05;;
23146;SDS011;11742;53.532;-1.478;2022-09-09T01:40:22;6.50;;;4.13;;
23146;SDS011;11742;53.532;-1.478;2022-09-09T01:42:49;5.53;;;4.20;;
23146;SDS011;11742;53.532;-1.478;2022-09-09T01:45:15;6.72;;;4.03;;
23146;SDS011;11742;53.532;-1.478;2022-09-09T01:47:41;5.97;;;3.90;;
23146;SDS011;11742;53.532;-1.478;2022-09-09T01:50:07;4.28;;;3.20;;
23146;SDS011;11742;53.532;-1.478;2022-09-09T01:52:37;6.68;;;3.10;;
23146;SDS011;11742;53.532;-1.478;2022-09-09T01:55:04;5.63;;;3.10;;
23146;SDS011;11742;53.532;-1.478;2022-09-09T01:57:34;4.72;;;3.10;;
23146;SDS011;11742;53.532;-1.478;2022-09-09T02:00:14;5.38;;;2.85;;
23146;SDS011;11742;53.532;-1.478;2022-09-09T02:08:08;3.33;;;2.30;;
23146;SDS011;11742;53.532;-1.478;2022-09-09T02:10:42;4.10;;;2.67;;
23146;SDS011;11742;53.532;-1.478;2022-09-09T02:13:16;3.60;;;2.58;;
23146;SDS011;11742;53.532;-1.478;2022-09-09T02:18:10;4.97;;;2.53;;
23146;SDS011;11742;53.532;-1.478;2022-09-09T02:20:39;2.80;;;2.00;;
23146;SDS011;11742;53.532;-1.478;2022-09-09T02:23:06;2.95;;;2.40;;
23146;SDS011;11742;53.532;-1.478;2022-09-09T02:25:33;3.67;;;2.40;;
23146;SDS011;11742;53.532;-1.478;2022-09-09T02:28:02;4.55;;;2.45;;
23146;SDS011;11742;53.532;-1.478;2022-09-09T02:30:31;2.97;;;2.28;;
23146;SDS011;11742;53.532;-1.478;2022-09-09T02:32:59;3.60;;;2.03;;
23146;SDS011;11742;53.532;-1.478;2022-09-09T02:35:28;2.25;;;2.03;;
23146;SDS011;11742;53.532;-1.478;2022-09-09T02:37:58;2.28;;;1.83;;
23146;SDS011;11742;53.532;-1.478;2022-09-09T02:40:27;3.22;;;1.92;;
23146;SDS011;11742;53.532;-1.478;2022-09-09T02:42:54;4.18;;;2.03;;
23146;SDS011;11742;53.532;-1.478;2022-09-09T02:45:20;3.13;;;2.03;;
23146;SDS011;11742;53.532;-1.478;2022-09-09T02:47:52;2.80;;;1.88;;
23146;SDS011;11742;53.532;-1.478;2022-09-09T02:50:52;3.33;;;1.92;;
23146;SDS011;11742;53.532;-1.478;2022-09-09T02:57:08;3.55;;;1.98;;
23146;SDS011;11742;53.532;-1.478;2022-09-09T02:59:36;2.63;;;1.75;;
23146;SDS011;11742;53.532;-1.478;2022-09-09T03:02:02;2.05;;;1.38;;
23146;SDS011;11742;53.532;-1.478;2022-09-09T03:04:28;2.00;;;1.80;;
23146;SDS011;11742;53.532;-1.478;2022-09-09T03:06:55;1.95;;;1.50;;
23146;SDS011;11742;53.532;-1.478;2022-09-09T03:09:22;2.80;;;1.40;;
23146;SDS011;11742;53.532;-1.478;2022-09-09T03:11:48;1.88;;;1.42;;
23146;SDS011;11742;53.532;-1.478;2022-09-09T03:14:14;1.92;;;1.63;;
23146;SDS011;11742;53.532;-1.478;2022-09-09T03:16:40;2.33;;;1.20;;
23146;SDS011;11742;53.532;-1.478;2022-09-09T03:19:08;2.55;;;1.40;;
23146;SDS011;11742;53.532;-1.478;2022-09-09T03:21:34;2.33;;;1.20;;
23146;SDS011;11742;53.532;-1.478;2022-09-09T03:24:00;2.67;;;1.45;;
23146;SDS011;11742;53.532;-1.478;2022-09-09T03:26:28;5.18;;;1.40;;
23146;SDS011;11742;53.532;-1.478;2022-09-09T03:28:55;1.92;;;1.42;;
23146;SDS011;11742;53.532;-1.478;2022-09-09T03:31:21;2.80;;;1.20;;
23146;SDS011;11742;53.532;-1.478;2022-09-09T03:33:47;1.23;;;1.05;;
23146;SDS011;11742;53.532;-1.478;2022-09-09T03:36:13;2.53;;;1.20;;
23146;SDS011;11742;53.532;-1.478;2022-09-09T03:38:40;2.55;;;1.20;;
23146;SDS011;11742;53.532;-1.478;2022-09-09T03:41:06;3.17;;;1.15;;
23146;SDS011;11742;53.532;-1.478;2022-09-09T03:43:32;1.40;;;1.20;;
23146;SDS011;11742;53.532;-1.478;2022-09-09T03:45:59;2.30;;;1.30;;
23146;SDS011;11742;53.532;-1.478;2022-09-09T03:48:25;1.88;;;1.05;;
23146;SDS011;11742;53.532;-1.478;2022-09-09T03:50:53;1.38;;;1.00;;
23146;SDS011;11742;53.532;-1.478;2022-09-09T03:53:21;6.22;;;1.33;;
23146;SDS011;11742;53.532;-1.478;2022-09-09T03:55:49;2.00;;;1.00;;
23146;SDS011;11742;53.532;-1.478;2022-09-09T03:58:20;2.80;;;1.25;;
23146;SDS011;11742;53.532;-1.478;2022-09-09T04:01:02;1.47;;;0.83;;
23146;SDS011;11742;53.532;-1.478;2022-09-09T04:03:30;1.10;;;1.00;;
23146;SDS011;11742;53.532;-1.478;2022-09-09T04:05:57;2.05;;;1.00;;
23146;SDS011;11742;53.532;-1.478;2022-09-09T04:08:24;2.38;;;1.00;;
23146;SDS011;11742;53.532;-1.478;2022-09-09T04:10:50;3.50;;;1.02;;
23146;SDS011;11742;53.532;-1.478;2022-09-09T04:13:17;2.22;;;1.00;;
23146;SDS011;11742;53.532;-1.478;2022-09-09T04:15:43;2.15;;;1.10;;
23146;SDS011;11742;53.532;-1.478;2022-09-09T04:18:14;2.88;;;0.90;;
23146;SDS011;11742;53.532;-1.478;2022-09-09T04:20:40;1.05;;;0.82;;
23146;SDS011;11742;53.532;-1.478;2022-09-09T04:23:08;1.77;;;0.90;;
23146;SDS011;11742;53.532;-1.478;2022-09-09T04:25:34;2.33;;;1.17;;
23146;SDS011;11742;53.532;-1.478;2022-09-09T04:27:59;0.93;;;0.82;;
23146;SDS011;11742;53.532;-1.478;2022-09-09T04:30:25;3.47;;;0.93;;
23146;SDS011;11742;53.532;-1.478;2022-09-09T04:32:52;2.80;;;1.15;;
23146;SDS011;11742;53.532;-1.478;2022-09-09T04:35:18;1.42;;;0.93;;
23146;SDS011;11742;53.532;-1.478;2022-09-09T04:37:45;1.48;;;1.10;;
23146;SDS011;11742;53.532;-1.478;2022-09-09T04:40:11;2.05;;;0.90;;
23146;SDS011;11742;53.532;-1.478;2022-09-09T04:42:37;1.95;;;1.10;;
23146;SDS011;11742;53.532;-1.478;2022-09-09T04:45:04;3.03;;;1.10;;
23146;SDS011;11742;53.532;-1.478;2022-09-09T04:47:31;4.05;;;1.50;;
23146;SDS011;11742;53.532;-1.478;2022-09-09T04:49:58;2.35;;;1.00;;
23146;SDS011;11742;53.532;-1.478;2022-09-09T04:52:24;1.30;;;1.00;;
23146;SDS011;11742;53.532;-1.478;2022-09-09T04:54:49;3.67;;;1.10;;
23146;SDS011;11742;53.532;-1.478;2022-09-09T04:57:15;2.67;;;1.30;;
23146;SDS011;11742;53.532;-1.478;2022-09-09T04:59:41;2.03;;;1.20;;
23146;SDS011;11742;53.532;-1.478;2022-09-09T05:02:06;1.88;;;1.10;;
23146;SDS011;11742;53.532;-1.478;2022-09-09T05:04:32;3.53;;;1.20;;
23146;SDS011;11742;53.532;-1.478;2022-09-09T05:06:58;1.73;;;1.15;;
23146;SDS011;11742;53.532;-1.478;2022-09-09T05:09:24;1.95;;;1.20;;
23146;SDS011;11742;53.532;-1.478;2022-09-09T05:11:50;2.75;;;1.50;;
23146;SDS011;11742;53.532;-1.478;2022-09-09T05:14:16;1.38;;;1.10;;
23146;SDS011;11742;53.532;-1.478;2022-09-09T05:16:44;3.10;;;1.30;;
23146;SDS011;11742;53.532;-1.478;2022-09-09T05:19:10;2.60;;;1.20;;
23146;SDS011;11742;53.532;-1.478;2022-09-09T05:21:36;2.60;;;1.52;;
23146;SDS011;11742;53.532;-1.478;2022-09-09T05:24:02;3.30;;;1.30;;
23146;SDS011;11742;53.532;-1.478;2022-09-09T05:26:28;3.03;;;1.33;;
23146;SDS011;11742;53.532;-1.478;2022-09-09T05:28:54;1.90;;;1.63;;
23146;SDS011;11742;53.532;-1.478;2022-09-09T05:31:20;3.33;;;1.67;;
23146;SDS011;11742;53.532;-1.478;2022-09-09T05:33:46;1.83;;;1.20;;
23146;SDS011;11742;53.532;-1.478;2022-09-09T05:36:18;1.42;;;1.20;;
23146;SDS011;11742;53.532;-1.478;2022-09-09T05:38:45;2.00;;;1.60;;
23146;SDS011;11742;53.532;-1.478;2022-09-09T05:41:11;2.13;;;1.40;;
23146;SDS011;11742;53.532;-1.478;2022-09-09T05:43:40;2.92;;;1.58;;
23146;SDS011;11742;53.532;-1.478;2022-09-09T05:46:17;2.28;;;1.48;;
23146;SDS011;11742;53.532;-1.478;2022-09-09T05:48:44;2.63;;;1.55;;
23146;SDS011;11742;53.532;-1.478;2022-09-09T05:51:12;2.30;;;1.55;;
23146;SDS011;11742;53.532;-1.478;2022-09-09T05:53:43;3.30;;;1.52;;
23146;SDS011;11742;53.532;-1.478;2022-09-09T05:56:10;1.60;;;1.30;;
23146;SDS011;11742;53.532;-1.478;2022-09-09T05:58:39;2.22;;;1.30;;
23146;SDS011;11742;53.532;-1.478;2022-09-09T06:01:07;4.28;;;1.40;;
23146;SDS011;11742;53.532;-1.478;2022-09-09T06:03:35;14.25;;;5.72;;
23146;SDS011;11742;53.532;-1.478;2022-09-09T06:06:03;12.23;;;4.60;;
23146;SDS011;11742;53.532;-1.478;2022-09-09T06:08:31;10.63;;;3.83;;
23146;SDS011;11742;53.532;-1.478;2022-09-09T06:11:01;7.25;;;2.70;;
23146;SDS011;11742;53.532;-1.478;2022-09-09T06:13:29;11.75;;;4.50;;
23146;SDS011;11742;53.532;-1.478;2022-09-09T06:15:55;8.52;;;3.00;;
23146;SDS011;11742;53.532;-1.478;2022-09-09T06:18:21;7.75;;;2.72;;
23146;SDS011;11742;53.532;-1.478;2022-09-09T06:20:57;5.07;;;2.00;;
23146;SDS011;11742;53.532;-1.478;2022-09-09T06:23:24;4.68;;;2.10;;
23146;SDS011;11742;53.532;-1.478;2022-09-09T06:25:51;10.85;;;2.40;;
23146;SDS011;11742;53.532;-1.478;2022-09-09T06:28:17;5.43;;;2.13;;
23146;SDS011;11742;53.532;-1.478;2022-09-09T06:30:44;4.07;;;2.00;;
23146;SDS011;11742;53.532;-1.478;2022-09-09T06:33:09;2.97;;;1.40;;
23146;SDS011;11742;53.532;-1.478;2022-09-09T06:35:35;4.20;;;1.70;;
23146;SDS011;11742;53.532;-1.478;2022-09-09T06:38:01;4.20;;;1.85;;
23146;SDS011;11742;53.532;-1.478;2022-09-09T06:40:27;2.78;;;1.67;;
23146;SDS011;11742;53.532;-1.478;2022-09-09T06:42:52;2.95;;;1.75;;
23146;SDS011;11742;53.532;-1.478;2022-09-09T06:45:18;3.22;;;1.60;;
23146;SDS011;11742;53.532;-1.478;2022-09-09T06:47:44;4.03;;;1.75;;
23146;SDS011;11742;53.532;-1.478;2022-09-09T06:50:10;4.45;;;1.40;;
23146;SDS011;11742;53.532;-1.478;2022-09-09T06:52:36;1.85;;;1.50;;
23146;SDS011;11742;53.532;-1.478;2022-09-09T06:55:02;3.40;;;1.30;;
23146;SDS011;11742;53.532;-1.478;2022-09-09T06:57:28;3.78;;;1.70;;
23146;SDS011;11742;53.532;-1.478;2022-09-09T06:59:54;3.00;;;1.55;;
23146;SDS011;11742;53.532;-1.478;2022-09-09T07:02:20;2.70;;;1.70;;
23146;SDS011;11742;53.532;-1.478;2022-09-09T07:04:46;3.80;;;2.10;;
23146;SDS011;11742;53.532;-1.478;2022-09-09T07:07:12;2.47;;;1.60;;
23146;SDS011;11742;53.532;-1.478;2022-09-09T07:09:40;3.13;;;1.25;;
23146;SDS011;11742;53.532;-1.478;2022-09-09T07:12:06;2.95;;;1.48;;
23146;SDS011;11742;53.532;-1.478;2022-09-09T07:14:32;2.00;;;1.30;;
23146;SDS011;11742;53.532;-1.478;2022-09-09T07:16:59;2.45;;;1.40;;
23146;SDS011;11742;53.532;-1.478;2022-09-09T07:19:25;1.45;;;1.02;;
23146;SDS011;11742;53.532;-1.478;2022-09-09T07:21:51;2.80;;;1.58;;
23146;SDS011;11742;53.532;-1.478;2022-09-09T07:24:16;1.00;;;1.00;;
23146;SDS011;11742;53.532;-1.478;2022-09-09T07:26:42;1.40;;;1.30;;
23146;SDS011;11742;53.532;-1.478;2022-09-09T07:29:09;2.25;;;1.17;;
23146;SDS011;11742;53.532;-1.478;2022-09-09T07:31:37;1.95;;;1.10;;
23146;SDS011;11742;53.532;-1.478;2022-09-09T07:34:05;1.60;;;1.20;;
23146;SDS011;11742;53.532;-1.478;2022-09-09T07:36:32;1.67;;;1.20;;
23146;SDS011;11742;53.532;-1.478;2022-09-09T07:39:00;1.73;;;1.30;;
23146;SDS011;11742;53.532;-1.478;2022-09-09T07:41:32;2.25;;;1.30;;
23146;SDS011;11742;53.532;-1.478;2022-09-09T07:44:04;2.53;;;1.27;;
23146;SDS011;11742;53.532;-1.478;2022-09-09T07:46:32;1.80;;;1.10;;
23146;SDS011;11742;53.532;-1.478;2022-09-09T07:48:58;1.40;;;1.10;;
23146;SDS011;11742;53.532;-1.478;2022-09-09T07:51:26;1.90;;;1.27;;
23146;SDS011;11742;53.532;-1.478;2022-09-09T07:53:54;3.25;;;1.55;;
23146;SDS011;11742;53.532;-1.478;2022-09-09T07:56:23;2.95;;;1.30;;
23146;SDS011;11742;53.532;-1.478;2022-09-09T07:58:51;2.40;;;1.40;;
23146;SDS011;11742;53.532;-1.478;2022-09-09T08:01:22;2.53;;;1.20;;
23146;SDS011;11742;53.532;-1.478;2022-09-09T08:03:54;1.30;;;1.00;;
23146;SDS011;11742;53.532;-1.478;2022-09-09T08:06:24;3.17;;;1.20;;
23146;SDS011;11742;53.532;-1.478;2022-09-09T08:08:51;1.45;;;1.00;;
23146;SDS011;11742;53.532;-1.478;2022-09-09T08:11:18;1.40;;;0.95;;
23146;SDS011;11742;53.532;-1.478;2022-09-09T08:13:44;2.90;;;1.27;;
23146;SDS011;11742;53.532;-1.478;2022-09-09T08:16:11;1.38;;;0.90;;
23146;SDS011;11742;53.532;-1.478;2022-09-09T08:18:39;1.75;;;1.17;;
23146;SDS011;11742;53.532;-1.478;2022-09-09T08:21:12;1.75;;;1.20;;
23146;SDS011;11742;53.532;-1.478;2022-09-09T08:23:40;1.10;;;1.00;;
23146;SDS011;11742;53.532;-1.478;2022-09-09T08:26:09;2.05;;;1.15;;
23146;SDS011;11742;53.532;-1.478;2022-09-09T08:28:40;1.80;;;1.00;;
23146;SDS011;11742;53.532;-1.478;2022-09-09T08:31:07;1.15;;;0.90;;
23146;SDS011;11742;53.532;-1.478;2022-09-09T08:33:43;2.33;;;1.10;;
23146;SDS011;11742;53.532;-1.478;2022-09-09T08:36:11;2.03;;;0.85;;
23146;SDS011;11742;53.532;-1.478;2022-09-09T08:38:40;2.40;;;1.17;;
23146;SDS011;11742;53.532;-1.478;2022-09-09T08:41:15;1.80;;;0.90;;
23146;SDS011;11742;53.532;-1.478;2022-09-09T08:43:46;2.58;;;0.80;;
23146;SDS011;11742;53.532;-1.478;2022-09-09T08:49:17;1.95;;;1.08;;
23146;SDS011;11742;53.532;-1.478;2022-09-09T08:51:45;1.13;;;1.00;;
23146;SDS011;11742;53.532;-1.478;2022-09-09T08:54:12;1.10;;;0.80;;
23146;SDS011;11742;53.532;-1.478;2022-09-09T08:56:38;1.42;;;0.98;;
23146;SDS011;11742;53.532;-1.478;2022-09-09T08:59:04;1.40;;;0.90;;
23146;SDS011;11742;53.532;-1.478;2022-09-09T09:07:31;1.60;;;0.80;;
23146;SDS011;11742;53.532;-1.478;2022-09-09T09:12:44;1.55;;;1.00;;
23146;SDS011;11742;53.532;-1.478;2022-09-09T09:15:25;1.50;;;1.00;;
23146;SDS011;11742;53.532;-1.478;2022-09-09T09:17:55;0.80;;;0.80;;
23146;SDS011;11742;53.532;-1.478;2022-09-09T09:20:38;1.38;;;0.70;;
23146;SDS011;11742;53.532;-1.478;2022-09-09T09:23:34;1.90;;;1.15;;
23146;SDS011;11742;53.532;-1.478;2022-09-09T09:26:09;1.95;;;0.82;;
23146;SDS011;11742;53.532;-1.478;2022-09-09T09:28:36;1.50;;;0.90;;
23146;SDS011;11742;53.532;-1.478;2022-09-09T09:31:05;0.80;;;0.80;;
23146;SDS011;11742;53.532;-1.478;2022-09-09T09:36:37;1.70;;;0.80;;
23146;SDS011;11742;53.532;-1.478;2022-09-09T09:39:06;0.90;;;0.75;;
23146;SDS011;11742;53.532;-1.478;2022-09-09T09:41:34;1.65;;;0.77;;
23146;SDS011;11742;53.532;-1.478;2022-09-09T09:44:03;1.88;;;0.98;;
23146;SDS011;11742;53.532;-1.478;2022-09-09T09:46:30;5.47;;;1.27;;
23146;SDS011;11742;53.532;-1.478;2022-09-09T09:49:01;6.05;;;2.03;;
23146;SDS011;11742;53.532;-1.478;2022-09-09T09:51:30;7.78;;;2.33;;
23146;SDS011;11742;53.532;-1.478;2022-09-09T09:56:38;4.50;;;1.30;;
23146;SDS011;11742;53.532;-1.478;2022-09-09T09:59:05;3.72;;;1.10;;
23146;SDS011;11742;53.532;-1.478;2022-09-09T10:01:43;2.28;;;1.10;;
23146;SDS011;11742;53.532;-1.478;2022-09-09T10:04:17;9.18;;;1.20;;
23146;SDS011;11742;53.532;-1.478;2022-09-09T10:06:48;1.90;;;0.90;;
23146;SDS011;11742;53.532;-1.478;2022-09-09T10:09:25;6.85;;;1.48;;
23146;SDS011;11742;53.532;-1.478;2022-09-09T10:15:15;1.85;;;1.00;;
23146;SDS011;11742;53.532;-1.478;2022-09-09T10:20:32;1.80;;;1.00;;
23146;SDS011;11742;53.532;-1.478;2022-09-09T10:25:57;0.90;;;0.70;;
23146;SDS011;11742;53.532;-1.478;2022-09-09T10:36:46;1.63;;;0.95;;
23146;SDS011;11742;53.532;-1.478;2022-09-09T10:42:09;1.58;;;0.70;;
23146;SDS011;11742;53.532;-1.478;2022-09-09T10:47:33;2.63;;;0.85;;
23146;SDS011;11742;53.532;-1.478;2022-09-09T10:50:50;0.88;;;0.70;;
23146;SDS011;11742;53.532;-1.478;2022-09-09T10:56:13;1.27;;;0.60;;
23146;SDS011;11742;53.532;-1.478;2022-09-09T10:58:52;1.05;;;0.70;;
23146;SDS011;11742;53.532;-1.478;2022-09-09T11:01:29;1.20;;;0.55;;
23146;SDS011;11742;53.532;-1.478;2022-09-09T11:04:23;2.10;;;1.23;;
23146;SDS011;11742;53.532;-1.478;2022-09-09T11:06:56;2.38;;;0.90;;
23146;SDS011;11742;53.532;-1.478;2022-09-09T11:09:23;1.85;;;0.65;;
23146;SDS011;11742;53.532;-1.478;2022-09-09T11:11:53;3.85;;;0.90;;
23146;SDS011;11742;53.532;-1.478;2022-09-09T11:14:32;1.73;;;0.70;;
23146;SDS011;11742;53.532;-1.478;2022-09-09T11:19:49;1.45;;;0.70;;
23146;SDS011;11742;53.532;-1.478;2022-09-09T11:25:14;1.65;;;0.88;;
23146;SDS011;11742;53.532;-1.478;2022-09-09T11:33:13;0.63;;;0.63;;
23146;SDS011;11742;53.532;-1.478;2022-09-09T11:35:55;1.42;;;0.73;;
23146;SDS011;11742;53.532;-1.478;2022-09-09T11:41:12;1.08;;;0.50;;
23146;SDS011;11742;53.532;-1.478;2022-09-09T11:43:44;1.00;;;0.45;;
23146;SDS011;11742;53.532;-1.478;2022-09-09T11:46:10;1.67;;;0.60;;
23146;SDS011;11742;53.532;-1.478;2022-09-09T11:48:44;1.23;;;0.60;;
23146;SDS011;11742;53.532;-1.478;2022-09-09T11:53:58;2.17;;;0.50;;
23146;SDS011;11742;53.532;-1.478;2022-09-09T11:56:44;1.33;;;0.90;;
23146;SDS011;11742;53.532;-1.478;2022-09-09T11:59:20;2.15;;;0.73;;
23146;SDS011;11742;53.532;-1.478;2022-09-09T12:06:50;0.40;;;0.40;;
23146;SDS011;11742;53.532;-1.478;2022-09-09T12:17:22;1.48;;;0.55;;
23146;SDS011;11742;53.532;-1.478;2022-09-09T12:28:09;1.48;;;0.60;;
23146;SDS011;11742;53.532;-1.478;2022-09-09T12:30:48;1.25;;;0.50;;
23146;SDS011;11742;53.532;-1.478;2022-09-09T12:33:39;2.05;;;0.70;;
23146;SDS011;11742;53.532;-1.478;2022-09-09T12:36:11;3.22;;;1.10;;
23146;SDS011;11742;53.532;-1.478;2022-09-09T12:38:43;2.55;;;0.80;;
23146;SDS011;11742;53.532;-1.478;2022-09-09T12:41:25;3.03;;;0.55;;
23146;SDS011;11742;53.532;-1.478;2022-09-09T12:44:09;6.18;;;0.85;;
23146;SDS011;11742;53.532;-1.478;2022-09-09T12:46:40;12.38;;;2.13;;
23146;SDS011;11742;53.532;-1.478;2022-09-09T12:49:24;6.95;;;1.13;;
23146;SDS011;11742;53.532;-1.478;2022-09-09T12:51:51;4.97;;;0.70;;
23146;SDS011;11742;53.532;-1.478;2022-09-09T12:54:17;3.50;;;0.60;;
23146;SDS011;11742;53.532;-1.478;2022-09-09T12:56:45;2.83;;;0.80;;
23146;SDS011;11742;53.532;-1.478;2022-09-09T12:59:26;1.13;;;0.60;;
23146;SDS011;11742;53.532;-1.478;2022-09-09T13:02:01;1.23;;;0.60;;
23146;SDS011;11742;53.532;-1.478;2022-09-09T13:04:27;2.58;;;0.68;;
23146;SDS011;11742;53.532;-1.478;2022-09-09T13:06:52;3.63;;;0.73;;
23146;SDS011;11742;53.532;-1.478;2022-09-09T13:09:18;1.65;;;0.60;;
23146;SDS011;11742;53.532;-1.478;2022-09-09T13:11:46;2.00;;;0.60;;
23146;SDS011;11742;53.532;-1.478;2022-09-09T13:14:28;2.88;;;0.90;;
23146;SDS011;11742;53.532;-1.478;2022-09-09T13:17:03;0.57;;;0.50;;
23146;SDS011;11742;53.532;-1.478;2022-09-09T13:19:37;2.88;;;0.60;;
23146;SDS011;11742;53.532;-1.478;2022-09-09T13:22:13;1.88;;;0.50;;
23146;SDS011;11742;53.532;-1.478;2022-09-09T13:24:44;3.15;;;0.68;;
23146;SDS011;11742;53.532;-1.478;2022-09-09T13:30:32;1.55;;;0.70;;
23146;SDS011;11742;53.532;-1.478;2022-09-09T13:35:28;0.90;;;0.57;;
23146;SDS011;11742;53.532;-1.478;2022-09-09T13:37:54;2.83;;;0.60;;
23146;SDS011;11742;53.532;-1.478;2022-09-09T13:40:21;0.75;;;0.60;;
23146;SDS011;11742;53.532;-1.478;2022-09-09T13:42:50;0.68;;;0.47;;
23146;SDS011;11742;53.532;-1.478;2022-09-09T13:45:20;1.10;;;0.80;;
23146;SDS011;11742;53.532;-1.478;2022-09-09T13:47:47;1.35;;;0.45;;
23146;SDS011;11742;53.532;-1.478;2022-09-09T13:50:27;0.95;;;0.50;;
23146;SDS011;11742;53.532;-1.478;2022-09-09T13:52:57;1.48;;;0.70;;
23146;SDS011;11742;53.532;-1.478;2022-09-09T13:55:25;1.17;;;0.55;;
23146;SDS011;11742;53.532;-1.478;2022-09-09T14:00:21;1.52;;;0.80;;
23146;SDS011;11742;53.532;-1.478;2022-09-09T14:02:49;2.72;;;0.60;;
23146;SDS011;11742;53.532;-1.478;2022-09-09T14:05:15;1.45;;;0.80;;
23146;SDS011;11742;53.532;-1.478;2022-09-09T14:07:42;3.15;;;0.75;;
23146;SDS011;11742;53.532;-1.478;2022-09-09T14:10:08;1.08;;;0.45;;
23146;SDS011;11742;53.532;-1.478;2022-09-09T14:12:35;3.92;;;0.80;;
23146;SDS011;11742;53.532;-1.478;2022-09-09T14:15:04;1.48;;;0.65;;
23146;SDS011;11742;53.532;-1.478;2022-09-09T14:17:31;1.83;;;0.70;;
23146;SDS011;11742;53.532;-1.478;2022-09-09T14:19:57;2.53;;;0.52;;
23146;SDS011;11742;53.532;-1.478;2022-09-09T14:22:23;3.85;;;0.82;;
23146;SDS011;11742;53.532;-1.478;2022-09-09T14:24:49;3.95;;;0.77;;
23146;SDS011;11742;53.532;-1.478;2022-09-09T14:27:15;2.22;;;0.80;;
23146;SDS011;11742;53.532;-1.478;2022-09-09T14:29:43;2.33;;;0.90;;
23146;SDS011;11742;53.532;-1.478;2022-09-09T14:32:09;4.93;;;0.80;;
23146;SDS011;11742;53.532;-1.478;2022-09-09T14:34:35;1.27;;;0.50;;
23146;SDS011;11742;53.532;-1.478;2022-09-09T14:37:01;1.58;;;0.55;;
23146;SDS011;11742;53.532;-1.478;2022-09-09T14:39:27;2.67;;;0.65;;
23146;SDS011;11742;53.532;-1.478;2022-09-09T14:41:53;1.02;;;0.50;;
23146;SDS011;11742;53.532;-1.478;2022-09-09T14:44:18;1.33;;;0.57;;
23146;SDS011;11742;53.532;-1.478;2022-09-09T14:46:44;7.32;;;1.05;;
23146;SDS011;11742;53.532;-1.478;2022-09-09T14:49:10;1.58;;;0.50;;
23146;SDS011;11742;53.532;-1.478;2022-09-09T14:51:38;1.05;;;0.70;;
23146;SDS011;11742;53.532;-1.478;2022-09-09T14:54:04;3.20;;;0.63;;
23146;SDS011;11742;53.532;-1.478;2022-09-09T14:56:30;1.13;;;0.50;;
23146;SDS011;11742;53.532;-1.478;2022-09-09T14:58:59;1.77;;;0.50;;
23146;SDS011;11742;53.532;-1.478;2022-09-09T15:01:26;1.48;;;0.60;;
23146;SDS011;11742;53.532;-1.478;2022-09-09T15:03:53;1.30;;;0.60;;
23146;SDS011;11742;53.532;-1.478;2022-09-09T15:06:20;2.33;;;0.60;;
23146;SDS011;11742;53.532;-1.478;2022-09-09T15:08:49;1.73;;;0.50;;
23146;SDS011;11742;53.532;-1.478;2022-09-09T15:11:16;0.98;;;0.47;;
23146;SDS011;11742;53.532;-1.478;2022-09-09T15:13:42;2.47;;;0.40;;
23146;SDS011;11742;53.532;-1.478;2022-09-09T15:16:10;2.45;;;0.50;;
23146;SDS011;11742;53.532;-1.478;2022-09-09T15:18:38;0.40;;;0.40;;
23146;SDS011;11742;53.532;-1.478;2022-09-09T15:21:11;0.30;;;0.30;;
23146;SDS011;11742;53.532;-1.478;2022-09-09T15:23:38;0.82;;;0.38;;
23146;SDS011;11742;53.532;-1.478;2022-09-09T15:26:05;1.30;;;0.60;;
23146;SDS011;11742;53.532;-1.478;2022-09-09T15:28:32;1.33;;;0.63;;
23146;SDS011;11742;53.532;-1.478;2022-09-09T15:31:07;2.85;;;0.60;;
23146;SDS011;11742;53.532;-1.478;2022-09-09T15:33:37;2.65;;;0.88;;
23146;SDS011;11742;53.532;-1.478;2022-09-09T15:36:22;2.13;;;0.93;;
23146;SDS011;11742;53.532;-1.478;2022-09-09T15:38:49;0.85;;;0.40;;
23146;SDS011;11742;53.532;-1.478;2022-09-09T15:41:16;1.83;;;0.50;;
23146;SDS011;11742;53.532;-1.478;2022-09-09T15:43:44;1.10;;;0.63;;
23146;SDS011;11742;53.532;-1.478;2022-09-09T15:48:43;1.15;;;0.40;;
23146;SDS011;11742;53.532;-1.478;2022-09-09T15:51:10;1.70;;;0.60;;
23146;SDS011;11742;53.532;-1.478;2022-09-09T15:53:36;1.42;;;0.45;;
23146;SDS011;11742;53.532;-1.478;2022-09-09T15:56:04;1.40;;;0.50;;
23146;SDS011;11742;53.532;-1.478;2022-09-09T15:58:31;2.30;;;0.60;;
23146;SDS011;11742;53.532;-1.478;2022-09-09T16:01:07;2.03;;;0.93;;
23146;SDS011;11742;53.532;-1.478;2022-09-09T16:03:34;0.82;;;0.50;;
23146;SDS011;11742;53.532;-1.478;2022-09-09T16:06:01;1.27;;;0.55;;
23146;SDS011;11742;53.532;-1.478;2022-09-09T16:08:37;2.13;;;0.50;;
23146;SDS011;11742;53.532;-1.478;2022-09-09T16:11:09;0.52;;;0.50;;
23146;SDS011;11742;53.532;-1.478;2022-09-09T16:13:44;0.55;;;0.40;;
23146;SDS011;11742;53.532;-1.478;2022-09-09T16:16:11;1.05;;;0.60;;
23146;SDS011;11742;53.532;-1.478;2022-09-09T16:18:42;2.45;;;0.70;;
23146;SDS011;11742;53.532;-1.478;2022-09-09T16:21:12;0.77;;;0.50;;
23146;SDS011;11742;53.532;-1.478;2022-09-09T16:23:43;0.40;;;0.40;;
23146;SDS011;11742;53.532;-1.478;2022-09-09T16:26:13;0.90;;;0.70;;
23146;SDS011;11742;53.532;-1.478;2022-09-09T16:28:40;0.68;;;0.52;;
23146;SDS011;11742;53.532;-1.478;2022-09-09T16:31:06;0.73;;;0.57;;
23146;SDS011;11742;53.532;-1.478;2022-09-09T16:33:33;0.40;;;0.30;;
23146;SDS011;11742;53.532;-1.478;2022-09-09T16:36:04;1.38;;;0.60;;
23146;SDS011;11742;53.532;-1.478;2022-09-09T16:38:31;0.50;;;0.50;;
23146;SDS011;11742;53.532;-1.478;2022-09-09T16:41:01;1.27;;;0.50;;
23146;SDS011;11742;53.532;-1.478;2022-09-09T16:43:30;0.52;;;0.40;;
23146;SDS011;11742;53.532;-1.478;2022-09-09T16:45:56;1.58;;;0.60;;
23146;SDS011;11742;53.532;-1.478;2022-09-09T16:48:21;1.55;;;0.50;;
23146;SDS011;11742;53.532;-1.478;2022-09-09T16:50:47;0.70;;;0.40;;
23146;SDS011;11742;53.532;-1.478;2022-09-09T16:53:14;0.50;;;0.45;;
23146;SDS011;11742;53.532;-1.478;2022-09-09T16:55:40;1.17;;;0.60;;
23146;SDS011;11742;53.532;-1.478;2022-09-09T16:58:15;0.90;;;0.40;;
23146;SDS011;11742;53.532;-1.478;2022-09-09T17:00:41;2.22;;;0.40;;
23146;SDS011;11742;53.532;-1.478;2022-09-09T17:03:11;0.85;;;0.47;;
23146;SDS011;11742;53.532;-1.478;2022-09-09T17:05:40;0.50;;;0.40;;